Авиационная погода в Иркутске

СКИДКИ НА СМАРТФОНЫ!

Регион: 
Погода METAR: 
UIII 190400Z 15002MPS 9999 SCT030 15/08 Q1010 R12/60D NOSIG RMK QFE715/0954
Время наблюдения
2022-08-19T04:00:00Z
Температура C
15.0
Точка росы
8.0
Направление ветра
150
Скорость ветра (узлы)
4
Метео видимость
6.21
Облачность
SCT
Нижняя граница облачности (футы)
3000
Явления погоды
Условия полета
VFR
Аэропорт подробнее: 
SCT – разбросанная отдельная облачность;

Скидки на навигаторы!